createdAt,value
2017-12-01T00:00:02.127Z,22.77
2017-12-01T00:02:28.809Z,20.00
2017-12-01T00:04:55.501Z,21.42
2017-12-01T00:07:22.146Z,23.58
2017-12-01T00:09:49.649Z,27.75
2017-12-01T00:12:16.327Z,28.52
2017-12-01T00:14:43.003Z,21.58
2017-12-01T00:17:10.417Z,22.80
2017-12-01T00:19:38.075Z,23.20
2017-12-01T00:22:04.752Z,19.50
2017-12-01T00:24:32.202Z,20.00
2017-12-01T00:26:58.858Z,18.70
2017-12-01T00:29:26.282Z,18.45
2017-12-01T00:31:52.944Z,21.05
2017-12-01T00:34:19.643Z,21.20
2017-12-01T00:36:46.318Z,20.90
2017-12-01T00:39:12.994Z,17.25
2017-12-01T00:41:39.697Z,20.00
2017-12-01T00:44:06.360Z,20.35
2017-12-01T00:46:33.029Z,20.88
2017-12-01T00:48:59.782Z,22.77
2017-12-01T00:51:27.197Z,28.87
2017-12-01T00:53:53.865Z,23.38
2017-12-01T00:56:21.316Z,17.37
2017-12-01T00:58:48.801Z,19.23
2017-12-01T01:01:15.502Z,18.85
2017-12-01T01:03:42.188Z,19.42
2017-12-01T01:06:09.963Z,17.80
2017-12-01T01:08:36.764Z,19.70
2017-12-01T01:11:03.471Z,14.98
2017-12-01T01:13:30.125Z,15.25
2017-12-01T01:15:56.808Z,17.77
2017-12-01T01:18:23.836Z,17.42
2017-12-01T01:20:50.607Z,18.02
2017-12-01T01:23:17.398Z,17.73
2017-12-01T01:25:45.399Z,13.20
2017-12-01T01:28:12.081Z,15.95
2017-12-01T01:30:39.530Z,17.30
2017-12-01T01:33:06.188Z,16.33
2017-12-01T01:35:33.601Z,12.85
2017-12-01T01:38:00.252Z,12.77
2017-12-01T01:40:27.739Z,12.07
2017-12-01T01:42:54.456Z,12.45
2017-12-01T01:45:21.210Z,13.88
2017-12-01T01:47:47.959Z,15.65
2017-12-01T01:50:14.649Z,15.27
2017-12-01T01:52:41.488Z,13.25
2017-12-01T01:55:09.267Z,13.50
2017-12-01T01:57:36.097Z,11.63
2017-12-01T02:00:02.836Z,9.55
2017-12-01T02:02:30.296Z,12.93
2017-12-01T02:04:57.829Z,11.40
2017-12-01T02:07:24.598Z,8.98
2017-12-01T02:09:52.046Z,11.55
2017-12-01T02:12:18.817Z,12.37
2017-12-01T02:14:46.400Z,9.48
2017-12-01T02:17:13.922Z,9.48
2017-12-01T02:19:41.439Z,8.32
2017-12-01T02:22:08.202Z,8.55
2017-12-01T02:24:34.934Z,8.73
2017-12-01T02:27:01.678Z,9.82
2017-12-01T02:29:28.444Z,7.97
2017-12-01T02:31:55.223Z,11.25
2017-12-01T02:34:21.972Z,10.90
2017-12-01T02:36:48.737Z,9.85
2017-12-01T02:39:15.480Z,10.93
2017-12-01T02:41:42.242Z,9.40
2017-12-01T02:44:09.013Z,8.95
2017-12-01T02:46:35.775Z,10.18
2017-12-01T02:49:02.538Z,8.48
2017-12-01T02:51:30.025Z,9.23
2017-12-01T02:53:57.062Z,9.52
2017-12-01T02:56:24.146Z,7.82
2017-12-01T02:58:50.875Z,7.55
2017-12-01T03:01:17.617Z,8.05
2017-12-01T03:03:44.733Z,8.02
2017-12-01T03:06:12.211Z,7.57
2017-12-01T03:08:38.942Z,6.47
2017-12-01T03:11:06.429Z,8.25
2017-12-01T03:13:33.168Z,9.95
2017-12-01T03:15:59.898Z,10.88
2017-12-01T03:18:27.732Z,8.93
2017-12-01T03:20:54.467Z,7.53
2017-12-01T03:23:21.202Z,9.05
2017-12-01T03:25:47.951Z,9.02
2017-12-01T03:28:14.723Z,9.05
2017-12-01T03:30:41.483Z,7.50
2017-12-01T03:33:08.995Z,8.65
2017-12-01T03:35:35.756Z,8.30
2017-12-01T03:38:02.483Z,5.90
2017-12-01T03:40:29.336Z,7.87
2017-12-01T03:42:56.094Z,8.82
2017-12-01T03:45:22.831Z,11.98
2017-12-01T03:47:49.593Z,10.20
2017-12-01T03:50:16.354Z,12.02
2017-12-01T03:52:43.984Z,17.20
2017-12-01T03:55:10.773Z,11.40
2017-12-01T03:57:38.272Z,10.77
2017-12-01T04:00:05.017Z,14.65
2017-12-01T04:02:31.780Z,20.17
2017-12-01T04:04:58.508Z,9.52
2017-12-01T04:07:25.388Z,12.25
2017-12-01T04:09:52.983Z,7.78
2017-12-01T04:12:20.478Z,18.12
2017-12-01T04:14:47.409Z,13.10
2017-12-01T04:17:14.625Z,17.48
2017-12-01T04:19:41.388Z,19.87
2017-12-01T04:22:08.886Z,9.25
2017-12-01T04:24:35.639Z,8.38
2017-12-01T04:27:02.380Z,10.23
2017-12-01T04:29:29.308Z,8.32
2017-12-01T04:31:56.107Z,8.43
2017-12-01T04:34:23.152Z,6.90
2017-12-01T04:36:50.876Z,6.03
2017-12-01T04:39:17.622Z,5.05
2017-12-01T04:41:44.619Z,5.05
2017-12-01T04:44:11.389Z,6.43
2017-12-01T04:46:38.135Z,5.45
2017-12-01T04:49:05.624Z,6.40
2017-12-01T04:51:32.359Z,5.25
2017-12-01T04:53:59.127Z,5.65
2017-12-01T04:56:26.816Z,11.38
2017-12-01T04:58:53.574Z,6.57
2017-12-01T05:01:20.530Z,7.50
2017-12-01T05:03:47.274Z,7.95
2017-12-01T05:06:14.166Z,6.32
2017-12-01T05:08:42.146Z,7.95
2017-12-01T05:11:08.990Z,6.18
2017-12-01T05:13:35.700Z,6.93
2017-12-01T05:16:02.475Z,6.97
2017-12-01T05:18:29.310Z,6.12
2017-12-01T05:20:56.038Z,8.95
2017-12-01T05:23:22.773Z,7.00
2017-12-01T05:25:49.518Z,7.05
2017-12-01T05:28:20.745Z,6.12
2017-12-01T05:30:47.548Z,7.15
2017-12-01T05:33:14.342Z,9.93
2017-12-01T05:35:41.397Z,7.22
2017-12-01T05:38:08.675Z,7.60
2017-12-01T05:40:36.434Z,7.60
2017-12-01T05:43:03.943Z,7.62
2017-12-01T05:45:30.723Z,7.22
2017-12-01T05:47:57.477Z,7.43
2017-12-01T05:50:24.210Z,6.43
2017-12-01T05:52:50.938Z,8.20
2017-12-01T05:55:17.717Z,7.55
2017-12-01T05:57:45.239Z,6.03
2017-12-01T06:00:12.085Z,5.43
2017-12-01T06:02:38.826Z,8.25
2017-12-01T06:05:05.578Z,8.20
2017-12-01T06:07:32.474Z,5.30
2017-12-01T06:10:00.043Z,6.90
2017-12-01T06:12:27.545Z,7.72
2017-12-01T06:14:54.280Z,7.12
2017-12-01T06:17:21.025Z,6.65
2017-12-01T06:19:47.849Z,7.30
2017-12-01T06:22:14.620Z,7.03
2017-12-01T06:24:42.253Z,6.37
2017-12-01T06:27:09.071Z,10.30
2017-12-01T06:29:35.817Z,13.25
2017-12-01T06:32:02.558Z,9.02
2017-12-01T06:34:29.299Z,9.70
2017-12-01T06:36:56.021Z,12.45
2017-12-01T06:39:22.825Z,20.42
2017-12-01T06:41:50.300Z,18.45
2017-12-01T06:44:17.050Z,40.25
2017-12-01T06:46:43.785Z,24.73
2017-12-01T06:49:10.512Z,12.13
2017-12-01T06:51:38.016Z,9.40
2017-12-01T06:54:04.779Z,10.18
2017-12-01T06:56:31.540Z,10.50
2017-12-01T06:58:58.284Z,17.20
2017-12-01T07:01:25.045Z,13.57
2017-12-01T07:03:52.594Z,16.85
2017-12-01T07:06:20.279Z,13.57
2017-12-01T07:08:47.814Z,9.88
2017-12-01T07:11:14.462Z,8.27
2017-12-01T07:13:41.150Z,9.32
2017-12-01T07:16:07.813Z,12.37
2017-12-01T07:18:34.486Z,8.93
2017-12-01T07:21:01.158Z,9.18
2017-12-01T07:23:27.829Z,9.70
2017-12-01T07:25:54.567Z,9.98
2017-12-01T07:28:21.206Z,12.45
2017-12-01T07:30:47.867Z,12.52
2017-12-01T07:33:14.581Z,12.50
2017-12-01T07:35:41.237Z,11.18
2017-12-01T07:38:07.938Z,9.73
2017-12-01T07:40:34.671Z,12.68
2017-12-01T07:43:01.361Z,16.23
2017-12-01T07:45:28.091Z,20.77
2017-12-01T07:47:54.800Z,17.62
2017-12-01T07:50:21.593Z,16.02
2017-12-01T07:52:48.344Z,9.77
2017-12-01T07:55:15.100Z,11.00
2017-12-01T07:57:41.801Z,14.63
2017-12-01T08:00:09.250Z,7.78
2017-12-01T08:02:35.978Z,9.18
2017-12-01T08:05:03.463Z,7.80
2017-12-01T08:07:30.889Z,8.88
2017-12-01T08:09:57.610Z,11.93
2017-12-01T08:12:24.313Z,6.82
2017-12-01T08:14:51.781Z,6.97
2017-12-01T08:17:29.465Z,8.23
2017-12-01T08:19:56.166Z,10.85
2017-12-01T08:22:41.280Z,6.30
2017-12-01T08:25:28.502Z,6.93
2017-12-01T08:27:55.230Z,8.70
2017-12-01T08:30:21.937Z,9.52
2017-12-01T08:32:48.641Z,9.00
2017-12-01T08:35:15.322Z,9.05
2017-12-01T08:37:42.068Z,7.60
2017-12-01T08:40:09.581Z,7.78
2017-12-01T08:42:36.313Z,13.27
2017-12-01T08:45:03.020Z,6.95
2017-12-01T08:47:29.678Z,7.20
2017-12-01T08:49:56.369Z,7.45
2017-12-01T08:52:23.093Z,8.25
2017-12-01T08:54:49.793Z,8.40
2017-12-01T08:57:16.503Z,6.37
2017-12-01T08:59:43.967Z,7.95
2017-12-01T09:02:11.625Z,8.10
2017-12-01T09:04:40.003Z,7.12
2017-12-01T09:07:06.658Z,7.03
2017-12-01T09:09:34.125Z,9.13
2017-12-01T09:12:01.561Z,10.18
2017-12-01T09:14:28.260Z,9.85
2017-12-01T09:16:55.003Z,8.32
2017-12-01T09:19:21.776Z,22.50
2017-12-01T09:21:49.110Z,6.00
2017-12-01T09:24:15.781Z,11.95
2017-12-01T09:26:42.520Z,9.45
2017-12-01T09:29:09.295Z,7.72
2017-12-01T09:31:36.026Z,6.90
2017-12-01T09:34:02.803Z,7.97
2017-12-01T09:36:29.549Z,7.77
2017-12-01T09:38:57.008Z,8.73
2017-12-01T09:41:24.537Z,12.10
2017-12-01T09:43:51.989Z,9.60
2017-12-01T09:46:18.719Z,4.87
2017-12-01T09:48:45.480Z,5.23
2017-12-01T09:51:12.213Z,9.00
2017-12-01T09:53:38.900Z,15.07
2017-12-01T09:56:05.602Z,7.27
2017-12-01T09:58:32.349Z,16.80
2017-12-01T10:00:59.099Z,6.00
2017-12-01T10:03:25.852Z,4.47
2017-12-01T10:05:52.558Z,8.98
2017-12-01T10:08:19.280Z,9.10
2017-12-01T10:10:46.031Z,7.10
2017-12-01T10:13:13.414Z,9.60
2017-12-01T10:15:40.100Z,6.68
2017-12-01T10:18:07.550Z,4.72
2017-12-01T10:20:34.266Z,8.00
2017-12-01T10:23:00.963Z,12.25
2017-12-01T10:25:27.645Z,8.25
2017-12-01T10:27:54.362Z,7.50
2017-12-01T10:30:21.076Z,7.60
2017-12-01T10:32:48.482Z,9.15
2017-12-01T10:35:15.186Z,9.30
2017-12-01T10:37:42.592Z,7.15
2017-12-01T10:40:09.327Z,8.23
2017-12-01T10:42:36.062Z,9.93
2017-12-01T10:45:02.757Z,7.97
2017-12-01T10:47:29.494Z,7.18
2017-12-01T10:49:56.158Z,9.63
2017-12-01T10:52:22.859Z,7.28
2017-12-01T10:54:49.507Z,10.15
2017-12-01T10:57:16.194Z,6.78
2017-12-01T10:59:43.640Z,8.80
2017-12-01T11:02:10.310Z,7.22
2017-12-01T11:04:36.970Z,8.50
2017-12-01T11:07:03.680Z,8.90
2017-12-01T11:09:31.077Z,10.90
2017-12-01T11:11:57.779Z,11.55
2017-12-01T11:14:25.218Z,9.73
2017-12-01T11:16:51.894Z,14.63
2017-12-01T11:19:19.286Z,11.20
2017-12-01T11:21:45.961Z,11.10
2017-12-01T11:24:12.629Z,15.32
2017-12-01T11:26:39.313Z,14.27
2017-12-01T11:29:05.994Z,13.23
2017-12-01T11:31:32.652Z,12.50
2017-12-01T11:33:59.309Z,15.35
2017-12-01T11:36:26.719Z,12.63
2017-12-01T11:38:53.415Z,21.12
2017-12-01T11:41:20.829Z,16.12
2017-12-01T11:43:47.507Z,15.50
2017-12-01T11:46:14.947Z,16.23
2017-12-01T11:48:41.643Z,17.08
2017-12-01T11:51:08.350Z,13.25
2017-12-01T11:53:35.111Z,16.42
2017-12-01T11:56:01.829Z,17.00
2017-12-01T11:58:28.569Z,15.70
2017-12-01T12:00:56.271Z,15.65
2017-12-01T12:03:22.965Z,16.42
2017-12-01T12:05:49.717Z,17.10
2017-12-01T12:08:16.456Z,14.87
2017-12-01T12:10:43.166Z,13.40
2017-12-01T12:13:09.940Z,17.00
2017-12-01T12:15:36.754Z,17.35
2017-12-01T12:18:03.489Z,16.70
2017-12-01T12:20:30.182Z,14.27
2017-12-01T12:22:56.914Z,14.25
2017-12-01T12:25:23.703Z,12.50
2017-12-01T12:27:51.178Z,15.88
2017-12-01T12:30:18.596Z,14.38
2017-12-01T12:32:45.354Z,15.55
2017-12-01T12:35:12.160Z,16.35
2017-12-01T12:37:38.919Z,16.23
2017-12-01T12:40:05.707Z,18.92
2017-12-01T12:42:34.000Z,18.77
2017-12-01T12:45:00.843Z,18.17
2017-12-01T12:47:28.352Z,21.20
2017-12-01T12:49:55.118Z,16.50
2017-12-01T12:52:21.935Z,16.50
2017-12-01T12:54:48.669Z,17.25
2017-12-01T12:57:15.417Z,21.05
2017-12-01T12:59:42.182Z,17.75
2017-12-01T13:02:08.936Z,18.55
2017-12-01T13:04:35.719Z,19.50
2017-12-01T13:07:02.529Z,19.87
2017-12-01T13:09:29.572Z,16.10
2017-12-01T13:11:56.339Z,20.70
2017-12-01T13:14:23.088Z,15.32
2017-12-01T13:16:50.601Z,13.55
2017-12-01T13:19:17.385Z,17.83
2017-12-01T13:21:44.141Z,14.60
2017-12-01T13:24:11.700Z,14.65
2017-12-01T13:26:38.506Z,17.08
2017-12-01T13:29:05.254Z,17.52
2017-12-01T13:31:32.066Z,14.48
2017-12-01T13:33:58.795Z,14.10
2017-12-01T13:36:26.255Z,13.82
2017-12-01T13:38:53.733Z,13.55
2017-12-01T13:41:20.461Z,19.95
2017-12-01T13:43:47.248Z,12.93
2017-12-01T13:46:13.987Z,14.57
2017-12-01T13:48:40.773Z,18.08
2017-12-01T13:51:07.502Z,18.75
2017-12-01T13:53:34.298Z,14.25
2017-12-01T13:56:01.033Z,23.45
2017-12-01T13:58:28.467Z,16.95
2017-12-01T14:00:55.290Z,20.37
2017-12-01T14:03:21.986Z,15.82
2017-12-01T14:05:48.724Z,19.67
2017-12-01T14:08:16.175Z,16.40
2017-12-01T14:10:43.563Z,15.95
2017-12-01T14:13:10.222Z,14.50
2017-12-01T14:15:36.882Z,14.13
2017-12-01T14:18:03.579Z,19.02
2017-12-01T14:20:30.264Z,15.02
2017-12-01T14:22:56.931Z,15.85
2017-12-01T14:25:23.605Z,15.95
2017-12-01T14:27:51.109Z,15.10
2017-12-01T14:30:17.817Z,13.27
2017-12-01T14:32:44.472Z,14.57
2017-12-01T14:35:11.126Z,18.95
2017-12-01T14:37:37.799Z,18.12
2017-12-01T14:40:04.443Z,15.68
2017-12-01T14:42:31.145Z,15.13
2017-12-01T14:44:57.801Z,19.17
2017-12-01T14:47:24.452Z,13.90
2017-12-01T14:49:51.119Z,16.25
2017-12-01T14:52:17.797Z,16.45
2017-12-01T14:54:44.587Z,15.30
2017-12-01T14:57:11.259Z,15.38
2017-12-01T14:59:37.951Z,16.85
2017-12-01T15:02:04.625Z,19.20
2017-12-01T15:04:31.305Z,14.73
2017-12-01T15:06:57.989Z,18.50
2017-12-01T15:09:24.638Z,14.85
2017-12-01T15:11:51.329Z,18.90
2017-12-01T15:14:18.749Z,17.02
2017-12-01T15:16:45.443Z,19.55
2017-12-01T15:19:12.831Z,17.70
2017-12-01T15:21:40.422Z,17.45
2017-12-01T15:24:07.105Z,22.13
2017-12-01T15:26:34.526Z,19.95
2017-12-01T15:29:01.217Z,19.80
2017-12-01T15:31:27.957Z,19.73
2017-12-01T15:33:55.400Z,15.98
2017-12-01T15:36:23.655Z,18.10
2017-12-01T15:38:50.345Z,15.98
2017-12-01T15:41:17.175Z,18.08
2017-12-01T15:43:44.633Z,19.33
2017-12-01T15:46:12.230Z,17.73
2017-12-01T15:48:38.947Z,21.67
2017-12-01T15:51:06.426Z,20.65
2017-12-01T15:53:33.211Z,21.00
2017-12-01T15:55:59.965Z,17.50
2017-12-01T15:58:26.702Z,20.02
2017-12-01T16:00:53.438Z,19.10
2017-12-01T16:03:20.244Z,19.50
2017-12-01T16:05:48.809Z,19.27
2017-12-01T16:08:15.563Z,21.15
2017-12-01T16:10:43.096Z,20.15
2017-12-01T16:13:09.851Z,21.85
2017-12-01T16:15:36.581Z,22.92
2017-12-01T16:18:03.360Z,21.65
2017-12-01T16:20:30.848Z,24.02
2017-12-01T16:22:57.597Z,21.85
2017-12-01T16:25:24.365Z,22.20
2017-12-01T16:27:53.201Z,25.17
2017-12-01T16:30:19.999Z,23.62
2017-12-01T16:32:51.225Z,21.10
2017-12-01T16:35:14.862Z,23.40
2017-12-01T16:37:42.346Z,25.83
2017-12-01T16:40:09.077Z,20.20
2017-12-01T16:42:36.508Z,20.60
2017-12-01T16:45:03.770Z,24.23
2017-12-01T16:47:30.519Z,20.95
2017-12-01T16:49:57.272Z,30.52
2017-12-01T16:52:24.041Z,24.45
2017-12-01T16:54:51.541Z,26.27
2017-12-01T16:57:18.279Z,25.00
2017-12-01T16:59:45.030Z,27.40
2017-12-01T17:02:11.734Z,23.83
2017-12-01T17:04:38.510Z,26.62
2017-12-01T17:07:05.578Z,26.58
2017-12-01T17:09:32.343Z,26.48
2017-12-01T17:11:59.126Z,27.08
2017-12-01T17:14:25.984Z,26.55
2017-12-01T17:16:52.820Z,29.60
2017-12-01T17:19:19.656Z,29.05
2017-12-01T17:21:46.437Z,29.42
2017-12-01T17:24:13.176Z,31.67
2017-12-01T17:26:39.991Z,29.48
2017-12-01T17:29:07.466Z,31.20
2017-12-01T17:31:34.195Z,29.52
2017-12-01T17:34:01.723Z,28.83
2017-12-01T17:36:28.498Z,31.62
2017-12-01T17:38:55.989Z,35.13
2017-12-01T17:41:22.768Z,33.47
2017-12-01T17:43:49.514Z,31.85
2017-12-01T17:46:17.014Z,33.85
2017-12-01T17:48:44.500Z,34.13
2017-12-01T17:51:11.256Z,29.98
2017-12-01T17:53:38.042Z,32.05
2017-12-01T17:56:04.798Z,34.35
2017-12-01T17:58:32.280Z,35.22
2017-12-01T18:00:59.064Z,37.15
2017-12-01T18:03:25.779Z,28.12
2017-12-01T18:05:52.545Z,29.15
2017-12-01T18:08:19.298Z,30.25
2017-12-01T18:10:46.090Z,28.42
2017-12-01T18:13:12.922Z,31.77
2017-12-01T18:15:39.696Z,30.42
2017-12-01T18:18:07.191Z,31.45
2017-12-01T18:20:33.959Z,32.58
2017-12-01T18:23:00.707Z,27.75
2017-12-01T18:25:27.496Z,24.27
2017-12-01T18:27:54.267Z,26.48
2017-12-01T18:30:20.990Z,25.40
2017-12-01T18:32:47.758Z,29.95
2017-12-01T18:35:14.482Z,25.95
2017-12-01T18:37:41.226Z,25.73
2017-12-01T18:40:07.964Z,25.83
2017-12-01T18:42:34.701Z,28.90
2017-12-01T18:45:01.445Z,30.58
2017-12-01T18:47:28.198Z,29.12
2017-12-01T18:49:55.191Z,28.58
2017-12-01T18:52:21.965Z,28.87
2017-12-01T18:54:48.806Z,30.52
2017-12-01T18:57:15.533Z,30.85
2017-12-01T18:59:42.354Z,31.30
2017-12-01T19:02:10.159Z,25.12
2017-12-01T19:04:37.061Z,23.33
2017-12-01T19:07:03.893Z,30.58
2017-12-01T19:09:30.685Z,26.85
2017-12-01T19:11:57.399Z,29.58
2017-12-01T19:14:24.155Z,23.60
2017-12-01T19:16:50.912Z,28.02
2017-12-01T19:19:17.674Z,28.38
2017-12-01T19:21:44.509Z,39.40
2017-12-01T19:24:11.980Z,40.00
2017-12-01T19:26:39.030Z,47.42
2017-12-01T19:29:05.785Z,53.10
2017-12-01T19:31:32.513Z,46.50
2017-12-01T19:33:59.322Z,46.83
2017-12-01T19:36:26.067Z,42.80
2017-12-01T19:38:52.858Z,41.33
2017-12-01T19:41:19.598Z,43.15
2017-12-01T19:43:46.341Z,51.90
2017-12-01T19:46:13.084Z,45.30
2017-12-01T19:48:39.812Z,41.30
2017-12-01T19:51:06.545Z,36.63
2017-12-01T19:53:33.406Z,48.72
2017-12-01T19:56:00.163Z,37.45
2017-12-01T19:58:26.907Z,34.10
2017-12-01T20:00:53.673Z,36.17
2017-12-01T20:03:20.450Z,38.63
2017-12-01T20:05:47.217Z,38.38
2017-12-01T20:08:13.963Z,37.95
2017-12-01T20:10:40.730Z,46.53
2017-12-01T20:13:07.486Z,42.25
2017-12-01T20:15:34.269Z,43.47
2017-12-01T20:18:00.997Z,40.47
2017-12-01T20:20:28.496Z,45.12
2017-12-01T20:22:55.281Z,47.92
2017-12-01T20:25:22.050Z,43.42
2017-12-01T20:27:49.549Z,45.88
2017-12-01T20:30:16.282Z,41.50
2017-12-01T20:32:43.050Z,42.28
2017-12-01T20:35:09.838Z,41.55
2017-12-01T20:37:37.287Z,42.60
2017-12-01T20:40:04.148Z,42.38
2017-12-01T20:42:31.730Z,36.00
2017-12-01T20:44:58.527Z,45.60
2017-12-01T20:47:25.277Z,46.50
2017-12-01T20:49:51.990Z,49.75
2017-12-01T20:52:18.753Z,42.13
2017-12-01T20:54:45.598Z,44.40
2017-12-01T20:57:12.321Z,44.33
2017-12-01T20:59:39.105Z,46.90
2017-12-01T21:02:07.521Z,40.22
2017-12-01T21:04:34.987Z,37.72
2017-12-01T21:07:02.530Z,36.08
2017-12-01T21:09:29.988Z,32.38
2017-12-01T21:11:56.710Z,33.80
2017-12-01T21:14:23.459Z,32.70
2017-12-01T21:16:50.215Z,28.58
2017-12-01T21:19:17.749Z,29.20
2017-12-01T21:21:44.510Z,29.92
2017-12-01T21:24:11.304Z,27.58
2017-12-01T21:26:38.001Z,27.98
2017-12-01T21:29:04.749Z,28.35
2017-12-01T21:31:31.572Z,27.33
2017-12-01T21:33:58.323Z,30.98
2017-12-01T21:36:25.079Z,31.00
2017-12-01T21:38:52.681Z,30.58
2017-12-01T21:41:19.409Z,33.58
2017-12-01T21:43:46.889Z,35.42
2017-12-01T21:46:14.326Z,28.20
2017-12-01T21:48:41.037Z,28.77
2017-12-01T21:51:07.753Z,29.48
2017-12-01T21:53:34.437Z,28.23
2017-12-01T21:56:01.097Z,30.73
2017-12-01T21:58:27.843Z,26.98
2017-12-01T22:00:54.538Z,28.10
2017-12-01T22:03:21.188Z,28.10
2017-12-01T22:05:47.852Z,26.55
2017-12-01T22:08:14.571Z,25.90
2017-12-01T22:10:41.274Z,28.85
2017-12-01T22:13:08.729Z,28.15
2017-12-01T22:15:36.254Z,30.08
2017-12-01T22:18:03.007Z,28.65
2017-12-01T22:20:29.730Z,38.92
2017-12-01T22:22:56.482Z,38.10
2017-12-01T22:25:23.253Z,35.30
2017-12-01T22:27:49.972Z,37.45
2017-12-01T22:30:17.506Z,42.60
2017-12-01T22:32:44.214Z,48.58
2017-12-01T22:35:11.691Z,43.20
2017-12-01T22:37:39.144Z,45.10
2017-12-01T22:40:06.547Z,45.17
2017-12-01T22:42:33.271Z,45.80
2017-12-01T22:44:59.981Z,48.65
2017-12-01T22:47:27.430Z,42.20
2017-12-01T22:49:54.164Z,41.67
2017-12-01T22:52:20.870Z,38.72
2017-12-01T22:54:47.874Z,43.50
2017-12-01T22:57:14.558Z,39.88
2017-12-01T22:59:41.255Z,38.20
2017-12-01T23:02:07.888Z,34.60
2017-12-01T23:04:34.580Z,33.20
2017-12-01T23:07:01.252Z,31.35
2017-12-01T23:09:27.983Z,34.28
2017-12-01T23:11:54.702Z,28.98
2017-12-01T23:14:21.456Z,30.95
2017-12-01T23:16:48.070Z,28.48
2017-12-01T23:19:15.500Z,28.92
2017-12-01T23:21:42.201Z,33.72
2017-12-01T23:24:08.884Z,34.05
2017-12-01T23:26:35.593Z,30.60
2017-12-01T23:29:02.367Z,33.30
2017-12-01T23:31:29.056Z,26.42
2017-12-01T23:33:56.481Z,26.90
2017-12-01T23:36:23.152Z,24.37
2017-12-01T23:38:50.788Z,26.50
2017-12-01T23:41:17.522Z,27.15
2017-12-01T23:43:44.274Z,24.75
2017-12-01T23:46:11.007Z,25.45
2017-12-01T23:48:37.692Z,25.02
2017-12-01T23:51:05.139Z,25.83
2017-12-01T23:53:31.842Z,24.00
2017-12-01T23:55:58.557Z,26.02
2017-12-01T23:58:26.041Z,22.87
